首页
METAR-TAF:

METAR-TAF

机场 :

明斯克国际机场

明斯克, 白俄罗斯

纬度: 53-56N, 经度: 027-38E, 海拔: 234米

当前天气观测

该预报发布于17分钟前的16:00 UTC
风速2节,风向多变
温度 5°C
湿度 75%
气压 1021 hPa
能见度10公里或以上
散云层高于4500英尺

METAR: UMMS 231600Z VRB01MPS 9999 SCT045 05/01 Q1021 R31R/CLRD// R31L/290050 NOSIG

时间: 19:17 (16:17 UTC)

预报

该预报发布于5小时和13分钟前的11:04 UTC
预报有效从23日的 12点(UTC)到 24日的 12点(UTC)
风速4节,风向多变
能见度10公里或以上
散云层高于2000英尺
成为
从 23日的 17点(UTC)到 23日的 18点(UTC)
能見度: 3000
散云层高于300英尺
轻雾
短暂存在
从 23日的 18点(UTC)到 24日的 07点(UTC)
能見度: 0300
层高于200英尺
成为
从 24日的 07点(UTC)到 24日的 08点(UTC)
能见度10公里或以上
多云层高于1500英尺

TAF: UMMS 231104Z 2312/2412 VRB02MPS 9999 SCT020 BECMG 2317/2318 3000 BR SCT003 TEMPO 2318/2407 0300 FG VV002 BECMG 2407/2408 9999 NSW BKN015

超过4000个机场的气象观测和天气预报(METAR&TAF报告)。

可查询的气象台以黄色和红色小点在地图上表示。

将鼠标移到小点上方,可查看气象台名称。

然后点击查看天气观测和预报。

如需切换地图:点击带黑十字的绿色按钮放大地图;点击带横线的绿色按钮缩小地图;或者点击绿色箭头查看邻近地区的地图。


METAR-TAF: